sensor_id;sensor_type;location;lat;lon;timestamp;P1;durP1;ratioP1;P2;durP2;ratioP2
44214;SDS011;29884;47.450;19.124;2023-11-21T00:00:17;12.10;;;6.55;;
44214;SDS011;29884;47.450;19.124;2023-11-21T00:02:43;12.80;;;7.53;;
44214;SDS011;29884;47.450;19.124;2023-11-21T00:05:11;15.07;;;7.40;;
44214;SDS011;29884;47.450;19.124;2023-11-21T00:07:39;11.45;;;6.68;;
44214;SDS011;29884;47.450;19.124;2023-11-21T00:10:06;14.02;;;7.10;;
44214;SDS011;29884;47.450;19.124;2023-11-21T00:12:33;15.98;;;7.25;;
44214;SDS011;29884;47.450;19.124;2023-11-21T00:14:59;10.98;;;6.88;;
44214;SDS011;29884;47.450;19.124;2023-11-21T00:17:25;16.05;;;7.30;;
44214;SDS011;29884;47.450;19.124;2023-11-21T00:19:51;12.40;;;7.25;;
44214;SDS011;29884;47.450;19.124;2023-11-21T00:22:17;15.07;;;6.90;;
44214;SDS011;29884;47.450;19.124;2023-11-21T00:24:43;13.50;;;7.22;;
44214;SDS011;29884;47.450;19.124;2023-11-21T00:27:09;14.95;;;7.38;;
44214;SDS011;29884;47.450;19.124;2023-11-21T00:29:35;12.38;;;7.65;;
44214;SDS011;29884;47.450;19.124;2023-11-21T00:32:00;13.15;;;7.18;;
44214;SDS011;29884;47.450;19.124;2023-11-21T00:34:26;12.05;;;7.28;;
44214;SDS011;29884;47.450;19.124;2023-11-21T00:36:52;14.10;;;7.63;;
44214;SDS011;29884;47.450;19.124;2023-11-21T00:39:18;12.32;;;7.47;;
44214;SDS011;29884;47.450;19.124;2023-11-21T00:41:44;16.73;;;8.10;;
44214;SDS011;29884;47.450;19.124;2023-11-21T00:44:13;17.35;;;8.05;;
44214;SDS011;29884;47.450;19.124;2023-11-21T00:46:39;15.90;;;8.52;;
44214;SDS011;29884;47.450;19.124;2023-11-21T00:49:04;16.35;;;8.73;;
44214;SDS011;29884;47.450;19.124;2023-11-21T00:51:30;18.52;;;8.80;;
44214;SDS011;29884;47.450;19.124;2023-11-21T00:53:56;15.35;;;8.13;;
44214;SDS011;29884;47.450;19.124;2023-11-21T00:56:23;19.15;;;8.35;;
44214;SDS011;29884;47.450;19.124;2023-11-21T00:58:49;13.60;;;7.30;;
44214;SDS011;29884;47.450;19.124;2023-11-21T01:01:17;13.82;;;7.88;;
44214;SDS011;29884;47.450;19.124;2023-11-21T01:03:48;13.77;;;7.20;;
44214;SDS011;29884;47.450;19.124;2023-11-21T01:06:14;14.35;;;7.32;;
44214;SDS011;29884;47.450;19.124;2023-11-21T01:08:40;14.07;;;7.32;;
44214;SDS011;29884;47.450;19.124;2023-11-21T01:11:06;14.65;;;7.32;;
44214;SDS011;29884;47.450;19.124;2023-11-21T01:13:33;17.33;;;8.73;;
44214;SDS011;29884;47.450;19.124;2023-11-21T01:16:00;16.65;;;8.48;;
44214;SDS011;29884;47.450;19.124;2023-11-21T01:18:26;20.10;;;8.68;;
44214;SDS011;29884;47.450;19.124;2023-11-21T01:20:52;16.35;;;8.52;;
44214;SDS011;29884;47.450;19.124;2023-11-21T01:23:20;20.17;;;8.55;;
44214;SDS011;29884;47.450;19.124;2023-11-21T01:25:46;18.20;;;8.20;;
44214;SDS011;29884;47.450;19.124;2023-11-21T01:28:11;16.42;;;8.45;;
44214;SDS011;29884;47.450;19.124;2023-11-21T01:30:37;13.73;;;7.85;;
44214;SDS011;29884;47.450;19.124;2023-11-21T01:33:03;13.63;;;7.63;;
44214;SDS011;29884;47.450;19.124;2023-11-21T01:35:29;14.15;;;8.05;;
44214;SDS011;29884;47.450;19.124;2023-11-21T01:37:55;14.30;;;7.60;;
44214;SDS011;29884;47.450;19.124;2023-11-21T01:40:21;14.43;;;7.65;;
44214;SDS011;29884;47.450;19.124;2023-11-21T01:42:46;15.38;;;7.25;;
44214;SDS011;29884;47.450;19.124;2023-11-21T01:45:13;13.07;;;7.30;;
44214;SDS011;29884;47.450;19.124;2023-11-21T01:47:39;15.63;;;8.25;;
44214;SDS011;29884;47.450;19.124;2023-11-21T01:50:07;13.95;;;7.45;;
44214;SDS011;29884;47.450;19.124;2023-11-21T01:52:36;13.68;;;7.68;;
44214;SDS011;29884;47.450;19.124;2023-11-21T01:55:04;13.75;;;7.95;;
44214;SDS011;29884;47.450;19.124;2023-11-21T01:57:33;13.07;;;7.43;;
44214;SDS011;29884;47.450;19.124;2023-11-21T02:00:00;13.60;;;7.57;;
44214;SDS011;29884;47.450;19.124;2023-11-21T02:02:40;15.07;;;8.63;;
44214;SDS011;29884;47.450;19.124;2023-11-21T02:05:12;15.50;;;8.73;;
44214;SDS011;29884;47.450;19.124;2023-11-21T02:07:40;13.02;;;7.95;;
44214;SDS011;29884;47.450;19.124;2023-11-21T02:10:08;16.30;;;8.55;;
44214;SDS011;29884;47.450;19.124;2023-11-21T02:12:34;17.17;;;8.77;;
44214;SDS011;29884;47.450;19.124;2023-11-21T02:15:01;14.30;;;8.13;;
44214;SDS011;29884;47.450;19.124;2023-11-21T02:17:34;12.75;;;8.32;;
44214;SDS011;29884;47.450;19.124;2023-11-21T02:20:01;14.20;;;8.10;;
44214;SDS011;29884;47.450;19.124;2023-11-21T02:22:28;14.15;;;8.35;;
44214;SDS011;29884;47.450;19.124;2023-11-21T02:24:57;14.90;;;8.38;;
44214;SDS011;29884;47.450;19.124;2023-11-21T02:27:23;16.70;;;8.05;;
44214;SDS011;29884;47.450;19.124;2023-11-21T02:29:49;15.60;;;8.82;;
44214;SDS011;29884;47.450;19.124;2023-11-21T02:32:15;16.20;;;8.18;;
44214;SDS011;29884;47.450;19.124;2023-11-21T02:34:44;14.73;;;8.65;;
44214;SDS011;29884;47.450;19.124;2023-11-21T02:37:10;15.93;;;9.23;;
44214;SDS011;29884;47.450;19.124;2023-11-21T02:39:36;16.90;;;8.55;;
44214;SDS011;29884;47.450;19.124;2023-11-21T02:42:03;14.93;;;9.05;;
44214;SDS011;29884;47.450;19.124;2023-11-21T02:44:29;14.88;;;8.23;;
44214;SDS011;29884;47.450;19.124;2023-11-21T02:46:54;15.70;;;8.75;;
44214;SDS011;29884;47.450;19.124;2023-11-21T02:49:22;15.65;;;8.15;;
44214;SDS011;29884;47.450;19.124;2023-11-21T02:51:48;14.63;;;8.00;;
44214;SDS011;29884;47.450;19.124;2023-11-21T02:54:14;14.77;;;8.50;;
44214;SDS011;29884;47.450;19.124;2023-11-21T02:56:42;15.35;;;8.50;;
44214;SDS011;29884;47.450;19.124;2023-11-21T02:59:07;12.85;;;7.93;;
44214;SDS011;29884;47.450;19.124;2023-11-21T03:01:34;14.38;;;8.35;;
44214;SDS011;29884;47.450;19.124;2023-11-21T03:03:59;14.63;;;7.53;;
44214;SDS011;29884;47.450;19.124;2023-11-21T03:06:25;14.38;;;7.97;;
44214;SDS011;29884;47.450;19.124;2023-11-21T03:08:51;13.50;;;8.13;;
44214;SDS011;29884;47.450;19.124;2023-11-21T03:11:16;16.25;;;8.98;;
44214;SDS011;29884;47.450;19.124;2023-11-21T03:13:42;14.18;;;7.90;;
44214;SDS011;29884;47.450;19.124;2023-11-21T03:16:12;12.82;;;7.90;;
44214;SDS011;29884;47.450;19.124;2023-11-21T03:18:38;15.27;;;8.70;;
44214;SDS011;29884;47.450;19.124;2023-11-21T03:21:04;13.50;;;8.25;;
44214;SDS011;29884;47.450;19.124;2023-11-21T03:23:31;15.93;;;8.68;;
44214;SDS011;29884;47.450;19.124;2023-11-21T03:25:57;17.45;;;8.65;;
44214;SDS011;29884;47.450;19.124;2023-11-21T03:28:24;15.05;;;7.95;;
44214;SDS011;29884;47.450;19.124;2023-11-21T03:30:51;15.18;;;8.27;;
44214;SDS011;29884;47.450;19.124;2023-11-21T03:33:17;14.40;;;7.50;;
44214;SDS011;29884;47.450;19.124;2023-11-21T03:35:43;15.70;;;8.05;;
44214;SDS011;29884;47.450;19.124;2023-11-21T03:38:10;16.52;;;8.40;;
44214;SDS011;29884;47.450;19.124;2023-11-21T03:40:36;11.70;;;7.05;;
44214;SDS011;29884;47.450;19.124;2023-11-21T03:43:01;12.85;;;7.28;;
44214;SDS011;29884;47.450;19.124;2023-11-21T03:45:28;17.20;;;8.18;;
44214;SDS011;29884;47.450;19.124;2023-11-21T03:47:53;13.40;;;7.78;;
44214;SDS011;29884;47.450;19.124;2023-11-21T03:50:19;13.45;;;8.20;;
44214;SDS011;29884;47.450;19.124;2023-11-21T03:52:45;15.43;;;7.55;;
44214;SDS011;29884;47.450;19.124;2023-11-21T03:55:10;11.80;;;7.53;;
44214;SDS011;29884;47.450;19.124;2023-11-21T03:57:36;14.57;;;8.55;;
44214;SDS011;29884;47.450;19.124;2023-11-21T04:00:02;11.98;;;7.43;;
44214;SDS011;29884;47.450;19.124;2023-11-21T04:02:33;15.38;;;7.57;;
44214;SDS011;29884;47.450;19.124;2023-11-21T04:04:59;15.00;;;8.02;;
44214;SDS011;29884;47.450;19.124;2023-11-21T04:07:25;12.73;;;7.45;;
44214;SDS011;29884;47.450;19.124;2023-11-21T04:09:51;14.45;;;8.18;;
44214;SDS011;29884;47.450;19.124;2023-11-21T04:12:16;15.65;;;8.63;;
44214;SDS011;29884;47.450;19.124;2023-11-21T04:14:42;15.00;;;7.97;;
44214;SDS011;29884;47.450;19.124;2023-11-21T04:17:08;15.35;;;8.57;;
44214;SDS011;29884;47.450;19.124;2023-11-21T04:19:34;14.57;;;8.93;;
44214;SDS011;29884;47.450;19.124;2023-11-21T04:22:00;17.83;;;7.95;;
44214;SDS011;29884;47.450;19.124;2023-11-21T04:24:25;14.10;;;8.23;;
44214;SDS011;29884;47.450;19.124;2023-11-21T04:26:52;16.83;;;8.73;;
44214;SDS011;29884;47.450;19.124;2023-11-21T04:29:18;15.77;;;8.77;;
44214;SDS011;29884;47.450;19.124;2023-11-21T04:31:44;14.35;;;7.93;;
44214;SDS011;29884;47.450;19.124;2023-11-21T04:34:09;14.05;;;7.65;;
44214;SDS011;29884;47.450;19.124;2023-11-21T04:36:35;14.20;;;8.25;;
44214;SDS011;29884;47.450;19.124;2023-11-21T04:39:01;15.55;;;7.60;;
44214;SDS011;29884;47.450;19.124;2023-11-21T04:41:26;14.52;;;8.05;;
44214;SDS011;29884;47.450;19.124;2023-11-21T04:43:52;15.43;;;8.57;;
44214;SDS011;29884;47.450;19.124;2023-11-21T04:46:18;18.20;;;10.30;;
44214;SDS011;29884;47.450;19.124;2023-11-21T04:48:43;22.08;;;12.13;;
44214;SDS011;29884;47.450;19.124;2023-11-21T04:51:09;24.13;;;13.38;;
44214;SDS011;29884;47.450;19.124;2023-11-21T04:53:37;23.70;;;12.15;;
44214;SDS011;29884;47.450;19.124;2023-11-21T04:56:04;21.83;;;11.15;;
44214;SDS011;29884;47.450;19.124;2023-11-21T04:58:30;19.77;;;10.88;;
44214;SDS011;29884;47.450;19.124;2023-11-21T05:00:57;27.45;;;11.30;;
44214;SDS011;29884;47.450;19.124;2023-11-21T05:03:22;22.50;;;11.57;;
44214;SDS011;29884;47.450;19.124;2023-11-21T05:05:49;23.65;;;13.15;;
44214;SDS011;29884;47.450;19.124;2023-11-21T05:08:14;22.55;;;12.07;;
44214;SDS011;29884;47.450;19.124;2023-11-21T05:10:40;21.63;;;11.77;;
44214;SDS011;29884;47.450;19.124;2023-11-21T05:13:06;19.92;;;11.18;;
44214;SDS011;29884;47.450;19.124;2023-11-21T05:15:35;21.30;;;10.82;;
44214;SDS011;29884;47.450;19.124;2023-11-21T05:18:02;23.75;;;11.77;;
44214;SDS011;29884;47.450;19.124;2023-11-21T05:20:28;23.08;;;11.23;;
44214;SDS011;29884;47.450;19.124;2023-11-21T05:22:54;21.40;;;11.32;;
44214;SDS011;29884;47.450;19.124;2023-11-21T05:25:19;20.63;;;10.80;;
44214;SDS011;29884;47.450;19.124;2023-11-21T05:27:45;21.23;;;10.98;;
44214;SDS011;29884;47.450;19.124;2023-11-21T05:30:12;18.30;;;10.48;;
44214;SDS011;29884;47.450;19.124;2023-11-21T05:32:39;17.00;;;10.52;;
44214;SDS011;29884;47.450;19.124;2023-11-21T05:35:07;18.23;;;10.65;;
44214;SDS011;29884;47.450;19.124;2023-11-21T05:37:37;20.08;;;10.38;;
44214;SDS011;29884;47.450;19.124;2023-11-21T05:40:06;18.02;;;9.77;;
44214;SDS011;29884;47.450;19.124;2023-11-21T05:42:33;21.08;;;11.80;;
44214;SDS011;29884;47.450;19.124;2023-11-21T05:44:59;21.67;;;10.80;;
44214;SDS011;29884;47.450;19.124;2023-11-21T05:47:35;20.88;;;10.07;;
44214;SDS011;29884;47.450;19.124;2023-11-21T05:50:11;23.45;;;11.98;;
44214;SDS011;29884;47.450;19.124;2023-11-21T05:52:39;18.63;;;10.55;;
44214;SDS011;29884;47.450;19.124;2023-11-21T05:55:06;17.20;;;9.85;;
44214;SDS011;29884;47.450;19.124;2023-11-21T05:57:33;16.50;;;10.23;;
44214;SDS011;29884;47.450;19.124;2023-11-21T06:00:06;20.13;;;9.70;;
44214;SDS011;29884;47.450;19.124;2023-11-21T06:02:38;15.73;;;9.23;;
44214;SDS011;29884;47.450;19.124;2023-11-21T06:05:05;17.20;;;10.00;;
44214;SDS011;29884;47.450;19.124;2023-11-21T06:07:34;14.93;;;9.18;;
44214;SDS011;29884;47.450;19.124;2023-11-21T06:10:03;19.83;;;9.73;;
44214;SDS011;29884;47.450;19.124;2023-11-21T06:12:34;18.85;;;9.23;;
44214;SDS011;29884;47.450;19.124;2023-11-21T06:15:03;17.85;;;9.75;;
44214;SDS011;29884;47.450;19.124;2023-11-21T06:17:31;16.35;;;10.32;;
44214;SDS011;29884;47.450;19.124;2023-11-21T06:19:57;16.95;;;9.60;;
44214;SDS011;29884;47.450;19.124;2023-11-21T06:22:23;19.35;;;9.93;;
44214;SDS011;29884;47.450;19.124;2023-11-21T06:24:48;16.30;;;10.15;;
44214;SDS011;29884;47.450;19.124;2023-11-21T06:27:14;20.17;;;11.25;;
44214;SDS011;29884;47.450;19.124;2023-11-21T06:29:41;20.02;;;10.40;;
44214;SDS011;29884;47.450;19.124;2023-11-21T06:32:07;21.67;;;10.30;;
44214;SDS011;29884;47.450;19.124;2023-11-21T06:34:33;18.98;;;11.18;;
44214;SDS011;29884;47.450;19.124;2023-11-21T06:36:59;18.92;;;10.07;;
44214;SDS011;29884;47.450;19.124;2023-11-21T06:39:24;21.58;;;10.50;;
44214;SDS011;29884;47.450;19.124;2023-11-21T06:41:50;24.13;;;10.02;;
44214;SDS011;29884;47.450;19.124;2023-11-21T06:44:16;20.30;;;10.57;;
44214;SDS011;29884;47.450;19.124;2023-11-21T06:46:41;23.98;;;10.55;;
44214;SDS011;29884;47.450;19.124;2023-11-21T06:49:07;17.25;;;10.02;;
44214;SDS011;29884;47.450;19.124;2023-11-21T06:51:33;23.48;;;10.90;;
44214;SDS011;29884;47.450;19.124;2023-11-21T06:53:59;21.10;;;10.75;;
44214;SDS011;29884;47.450;19.124;2023-11-21T06:56:25;17.90;;;9.00;;
44214;SDS011;29884;47.450;19.124;2023-11-21T06:58:51;21.08;;;9.52;;
44214;SDS011;29884;47.450;19.124;2023-11-21T07:01:19;17.42;;;8.20;;
44214;SDS011;29884;47.450;19.124;2023-11-21T07:03:45;17.48;;;9.00;;
44214;SDS011;29884;47.450;19.124;2023-11-21T07:06:10;19.10;;;8.52;;
44214;SDS011;29884;47.450;19.124;2023-11-21T07:08:36;18.05;;;7.88;;
44214;SDS011;29884;47.450;19.124;2023-11-21T07:11:03;11.43;;;5.82;;
44214;SDS011;29884;47.450;19.124;2023-11-21T07:13:29;13.10;;;5.63;;
44214;SDS011;29884;47.450;19.124;2023-11-21T07:15:55;10.98;;;5.13;;
44214;SDS011;29884;47.450;19.124;2023-11-21T07:18:22;11.70;;;4.88;;
44214;SDS011;29884;47.450;19.124;2023-11-21T07:20:48;9.02;;;4.45;;
44214;SDS011;29884;47.450;19.124;2023-11-21T07:23:14;12.60;;;4.88;;
44214;SDS011;29884;47.450;19.124;2023-11-21T07:25:40;13.68;;;4.78;;
44214;SDS011;29884;47.450;19.124;2023-11-21T07:28:08;9.35;;;4.38;;
44214;SDS011;29884;47.450;19.124;2023-11-21T07:30:33;9.00;;;4.35;;
44214;SDS011;29884;47.450;19.124;2023-11-21T07:32:59;7.97;;;4.13;;
44214;SDS011;29884;47.450;19.124;2023-11-21T07:35:25;9.52;;;4.20;;
44214;SDS011;29884;47.450;19.124;2023-11-21T07:37:51;7.57;;;4.03;;
44214;SDS011;29884;47.450;19.124;2023-11-21T07:40:17;12.32;;;4.15;;
44214;SDS011;29884;47.450;19.124;2023-11-21T07:42:43;6.88;;;3.63;;
44214;SDS011;29884;47.450;19.124;2023-11-21T07:45:08;7.38;;;3.63;;
44214;SDS011;29884;47.450;19.124;2023-11-21T07:47:34;7.45;;;3.50;;
44214;SDS011;29884;47.450;19.124;2023-11-21T07:50:01;7.28;;;4.28;;
44214;SDS011;29884;47.450;19.124;2023-11-21T07:52:28;10.30;;;4.20;;
44214;SDS011;29884;47.450;19.124;2023-11-21T07:54:53;12.23;;;3.80;;
44214;SDS011;29884;47.450;19.124;2023-11-21T07:57:19;9.70;;;4.32;;
44214;SDS011;29884;47.450;19.124;2023-11-21T07:59:45;7.65;;;3.58;;
44214;SDS011;29884;47.450;19.124;2023-11-21T08:02:10;8.15;;;3.85;;
44214;SDS011;29884;47.450;19.124;2023-11-21T08:04:36;8.38;;;4.55;;
44214;SDS011;29884;47.450;19.124;2023-11-21T08:07:02;8.65;;;4.05;;
44214;SDS011;29884;47.450;19.124;2023-11-21T08:09:28;11.75;;;4.10;;
44214;SDS011;29884;47.450;19.124;2023-11-21T08:11:54;6.50;;;3.67;;
44214;SDS011;29884;47.450;19.124;2023-11-21T08:14:21;7.70;;;3.35;;
44214;SDS011;29884;47.450;19.124;2023-11-21T08:16:50;6.15;;;3.03;;
44214;SDS011;29884;47.450;19.124;2023-11-21T08:19:16;6.20;;;2.25;;
44214;SDS011;29884;47.450;19.124;2023-11-21T08:21:43;5.00;;;2.58;;
44214;SDS011;29884;47.450;19.124;2023-11-21T08:24:10;5.40;;;2.17;;
44214;SDS011;29884;47.450;19.124;2023-11-21T08:26:36;4.70;;;2.42;;
44214;SDS011;29884;47.450;19.124;2023-11-21T08:29:02;5.45;;;2.42;;
44214;SDS011;29884;47.450;19.124;2023-11-21T08:31:28;6.68;;;2.70;;
44214;SDS011;29884;47.450;19.124;2023-11-21T08:33:54;10.57;;;3.08;;
44214;SDS011;29884;47.450;19.124;2023-11-21T08:36:23;6.30;;;2.83;;
44214;SDS011;29884;47.450;19.124;2023-11-21T08:38:50;4.20;;;2.45;;
44214;SDS011;29884;47.450;19.124;2023-11-21T08:41:19;5.28;;;2.38;;
44214;SDS011;29884;47.450;19.124;2023-11-21T08:43:49;6.13;;;2.30;;
44214;SDS011;29884;47.450;19.124;2023-11-21T08:46:15;6.78;;;2.78;;
44214;SDS011;29884;47.450;19.124;2023-11-21T08:48:44;9.05;;;2.83;;
44214;SDS011;29884;47.450;19.124;2023-11-21T08:51:10;6.10;;;3.65;;
44214;SDS011;29884;47.450;19.124;2023-11-21T08:53:39;6.50;;;3.13;;
44214;SDS011;29884;47.450;19.124;2023-11-21T08:56:05;6.80;;;3.58;;
44214;SDS011;29884;47.450;19.124;2023-11-21T08:58:31;7.55;;;3.40;;
44214;SDS011;29884;47.450;19.124;2023-11-21T09:00:57;7.60;;;3.05;;
44214;SDS011;29884;47.450;19.124;2023-11-21T09:03:23;8.77;;;3.58;;
44214;SDS011;29884;47.450;19.124;2023-11-21T09:05:49;8.25;;;2.95;;
44214;SDS011;29884;47.450;19.124;2023-11-21T09:08:15;8.35;;;2.90;;
44214;SDS011;29884;47.450;19.124;2023-11-21T09:10:42;9.20;;;3.28;;
44214;SDS011;29884;47.450;19.124;2023-11-21T09:13:08;6.20;;;2.85;;
44214;SDS011;29884;47.450;19.124;2023-11-21T09:15:35;6.85;;;2.65;;
44214;SDS011;29884;47.450;19.124;2023-11-21T09:18:00;8.70;;;2.70;;
44214;SDS011;29884;47.450;19.124;2023-11-21T09:20:27;6.57;;;2.60;;
44214;SDS011;29884;47.450;19.124;2023-11-21T09:22:53;10.07;;;3.58;;
44214;SDS011;29884;47.450;19.124;2023-11-21T09:25:20;9.77;;;3.10;;
44214;SDS011;29884;47.450;19.124;2023-11-21T09:27:46;9.05;;;3.92;;
44214;SDS011;29884;47.450;19.124;2023-11-21T09:30:12;9.18;;;3.75;;
44214;SDS011;29884;47.450;19.124;2023-11-21T09:32:39;6.57;;;2.92;;
44214;SDS011;29884;47.450;19.124;2023-11-21T09:35:05;8.07;;;3.10;;
44214;SDS011;29884;47.450;19.124;2023-11-21T09:37:33;6.47;;;2.55;;
44214;SDS011;29884;47.450;19.124;2023-11-21T09:39:59;5.65;;;2.70;;
44214;SDS011;29884;47.450;19.124;2023-11-21T09:42:38;6.38;;;2.67;;
44214;SDS011;29884;47.450;19.124;2023-11-21T09:47:54;10.02;;;3.38;;
44214;SDS011;29884;47.450;19.124;2023-11-21T09:50:20;5.85;;;3.35;;
44214;SDS011;29884;47.450;19.124;2023-11-21T09:55:18;13.38;;;4.82;;
44214;SDS011;29884;47.450;19.124;2023-11-21T09:57:46;12.20;;;4.93;;
44214;SDS011;29884;47.450;19.124;2023-11-21T10:00:13;9.98;;;5.50;;
44214;SDS011;29884;47.450;19.124;2023-11-21T10:02:42;10.73;;;5.70;;
44214;SDS011;29884;47.450;19.124;2023-11-21T10:05:09;9.60;;;5.32;;
44214;SDS011;29884;47.450;19.124;2023-11-21T10:07:34;9.93;;;5.63;;
44214;SDS011;29884;47.450;19.124;2023-11-21T10:10:00;11.45;;;5.82;;
44214;SDS011;29884;47.450;19.124;2023-11-21T10:12:27;13.40;;;6.75;;
44214;SDS011;29884;47.450;19.124;2023-11-21T10:14:55;13.60;;;6.47;;
44214;SDS011;29884;47.450;19.124;2023-11-21T10:17:25;14.35;;;7.07;;
44214;SDS011;29884;47.450;19.124;2023-11-21T10:19:55;14.43;;;7.20;;
44214;SDS011;29884;47.450;19.124;2023-11-21T10:22:22;14.35;;;7.38;;
44214;SDS011;29884;47.450;19.124;2023-11-21T10:24:49;14.20;;;7.10;;
44214;SDS011;29884;47.450;19.124;2023-11-21T10:27:14;15.68;;;7.53;;
44214;SDS011;29884;47.450;19.124;2023-11-21T10:29:40;14.85;;;7.70;;
44214;SDS011;29884;47.450;19.124;2023-11-21T10:32:07;17.35;;;7.80;;
44214;SDS011;29884;47.450;19.124;2023-11-21T10:34:33;16.25;;;9.38;;
44214;SDS011;29884;47.450;19.124;2023-11-21T10:36:59;16.50;;;8.55;;
44214;SDS011;29884;47.450;19.124;2023-11-21T10:39:36;15.60;;;8.73;;
44214;SDS011;29884;47.450;19.124;2023-11-21T10:42:01;14.65;;;8.55;;
44214;SDS011;29884;47.450;19.124;2023-11-21T10:44:27;18.20;;;8.73;;
44214;SDS011;29884;47.450;19.124;2023-11-21T10:46:54;16.77;;;8.82;;
44214;SDS011;29884;47.450;19.124;2023-11-21T10:49:30;16.33;;;8.07;;
44214;SDS011;29884;47.450;19.124;2023-11-21T10:51:56;16.83;;;7.97;;
44214;SDS011;29884;47.450;19.124;2023-11-21T10:54:22;17.60;;;8.57;;
44214;SDS011;29884;47.450;19.124;2023-11-21T10:56:50;21.10;;;8.98;;
44214;SDS011;29884;47.450;19.124;2023-11-21T10:59:22;18.00;;;8.80;;
44214;SDS011;29884;47.450;19.124;2023-11-21T11:01:50;12.20;;;7.65;;
44214;SDS011;29884;47.450;19.124;2023-11-21T11:04:20;20.70;;;8.32;;
44214;SDS011;29884;47.450;19.124;2023-11-21T11:07:00;14.02;;;8.35;;
44214;SDS011;29884;47.450;19.124;2023-11-21T11:09:28;17.33;;;7.90;;
44214;SDS011;29884;47.450;19.124;2023-11-21T11:11:55;13.57;;;7.07;;
44214;SDS011;29884;47.450;19.124;2023-11-21T11:14:21;15.82;;;5.20;;
44214;SDS011;29884;47.450;19.124;2023-11-21T11:16:52;10.38;;;4.63;;
44214;SDS011;29884;47.450;19.124;2023-11-21T11:19:20;8.80;;;4.65;;
44214;SDS011;29884;47.450;19.124;2023-11-21T11:21:53;11.68;;;5.15;;
44214;SDS011;29884;47.450;19.124;2023-11-21T11:26:58;9.20;;;3.83;;
44214;SDS011;29884;47.450;19.124;2023-11-21T11:35:19;9.18;;;5.43;;
44214;SDS011;29884;47.450;19.124;2023-11-21T11:37:51;11.68;;;6.30;;
44214;SDS011;29884;47.450;19.124;2023-11-21T11:40:17;11.93;;;6.13;;
44214;SDS011;29884;47.450;19.124;2023-11-21T11:43:00;14.63;;;6.63;;
44214;SDS011;29884;47.450;19.124;2023-11-21T11:45:33;18.10;;;7.47;;
44214;SDS011;29884;47.450;19.124;2023-11-21T11:48:00;22.08;;;7.38;;
44214;SDS011;29884;47.450;19.124;2023-11-21T11:50:27;14.95;;;7.68;;
44214;SDS011;29884;47.450;19.124;2023-11-21T11:52:53;20.38;;;8.02;;
44214;SDS011;29884;47.450;19.124;2023-11-21T11:55:23;17.02;;;6.60;;
44214;SDS011;29884;47.450;19.124;2023-11-21T11:57:53;12.20;;;5.80;;
44214;SDS011;29884;47.450;19.124;2023-11-21T12:02:53;12.93;;;6.22;;
44214;SDS011;29884;47.450;19.124;2023-11-21T12:05:24;12.85;;;6.05;;
44214;SDS011;29884;47.450;19.124;2023-11-21T12:07:56;17.13;;;7.07;;
44214;SDS011;29884;47.450;19.124;2023-11-21T12:10:35;13.73;;;6.25;;
44214;SDS011;29884;47.450;19.124;2023-11-21T12:13:11;9.77;;;5.15;;
44214;SDS011;29884;47.450;19.124;2023-11-21T12:15:38;10.88;;;4.65;;
44214;SDS011;29884;47.450;19.124;2023-11-21T12:18:06;8.60;;;4.28;;
44214;SDS011;29884;47.450;19.124;2023-11-21T12:20:33;9.45;;;5.00;;
44214;SDS011;29884;47.450;19.124;2023-11-21T12:23:03;10.82;;;4.75;;
44214;SDS011;29884;47.450;19.124;2023-11-21T12:25:30;8.65;;;4.57;;
44214;SDS011;29884;47.450;19.124;2023-11-21T12:28:01;9.30;;;4.63;;
44214;SDS011;29884;47.450;19.124;2023-11-21T12:30:31;9.00;;;4.97;;
44214;SDS011;29884;47.450;19.124;2023-11-21T12:33:00;10.88;;;5.25;;
44214;SDS011;29884;47.450;19.124;2023-11-21T12:35:27;16.80;;;4.63;;
44214;SDS011;29884;47.450;19.124;2023-11-21T12:37:55;10.25;;;5.00;;
44214;SDS011;29884;47.450;19.124;2023-11-21T12:40:24;11.55;;;5.05;;
44214;SDS011;29884;47.450;19.124;2023-11-21T12:42:55;12.55;;;4.35;;
44214;SDS011;29884;47.450;19.124;2023-11-21T12:45:23;10.57;;;4.63;;
44214;SDS011;29884;47.450;19.124;2023-11-21T12:47:55;11.57;;;4.30;;
44214;SDS011;29884;47.450;19.124;2023-11-21T12:50:32;10.20;;;4.00;;
44214;SDS011;29884;47.450;19.124;2023-11-21T12:52:59;9.40;;;3.88;;
44214;SDS011;29884;47.450;19.124;2023-11-21T12:55:29;9.73;;;4.40;;
44214;SDS011;29884;47.450;19.124;2023-11-21T12:58:02;10.88;;;4.55;;
44214;SDS011;29884;47.450;19.124;2023-11-21T13:00:39;10.75;;;4.28;;
44214;SDS011;29884;47.450;19.124;2023-11-21T13:03:08;12.00;;;4.07;;
44214;SDS011;29884;47.450;19.124;2023-11-21T13:05:37;8.73;;;3.75;;
44214;SDS011;29884;47.450;19.124;2023-11-21T13:08:04;7.88;;;4.10;;
44214;SDS011;29884;47.450;19.124;2023-11-21T13:10:36;9.50;;;5.00;;
44214;SDS011;29884;47.450;19.124;2023-11-21T13:13:05;11.07;;;4.60;;
44214;SDS011;29884;47.450;19.124;2023-11-21T13:15:33;8.10;;;4.13;;
44214;SDS011;29884;47.450;19.124;2023-11-21T13:18:01;11.73;;;5.25;;
44214;SDS011;29884;47.450;19.124;2023-11-21T13:20:27;11.73;;;5.20;;
44214;SDS011;29884;47.450;19.124;2023-11-21T13:22:55;9.80;;;4.65;;
44214;SDS011;29884;47.450;19.124;2023-11-21T13:25:24;11.13;;;4.55;;
44214;SDS011;29884;47.450;19.124;2023-11-21T13:27:58;6.75;;;3.80;;
44214;SDS011;29884;47.450;19.124;2023-11-21T13:30:24;9.13;;;4.30;;
44214;SDS011;29884;47.450;19.124;2023-11-21T13:32:58;8.23;;;3.83;;
44214;SDS011;29884;47.450;19.124;2023-11-21T13:35:29;10.85;;;4.65;;
44214;SDS011;29884;47.450;19.124;2023-11-21T13:38:02;12.10;;;4.85;;
44214;SDS011;29884;47.450;19.124;2023-11-21T13:40:30;15.13;;;5.90;;
44214;SDS011;29884;47.450;19.124;2023-11-21T13:42:56;11.07;;;5.75;;
44214;SDS011;29884;47.450;19.124;2023-11-21T13:45:25;10.82;;;4.80;;
44214;SDS011;29884;47.450;19.124;2023-11-21T13:47:53;15.55;;;5.30;;
44214;SDS011;29884;47.450;19.124;2023-11-21T13:50:23;9.65;;;4.47;;
44214;SDS011;29884;47.450;19.124;2023-11-21T13:52:54;7.25;;;4.38;;
44214;SDS011;29884;47.450;19.124;2023-11-21T13:55:20;12.20;;;4.88;;
44214;SDS011;29884;47.450;19.124;2023-11-21T13:57:49;9.18;;;4.78;;
44214;SDS011;29884;47.450;19.124;2023-11-21T14:00:17;11.70;;;5.85;;
44214;SDS011;29884;47.450;19.124;2023-11-21T14:03:02;10.65;;;4.85;;
44214;SDS011;29884;47.450;19.124;2023-11-21T14:05:31;7.55;;;4.55;;
44214;SDS011;29884;47.450;19.124;2023-11-21T14:07:59;14.27;;;5.60;;
44214;SDS011;29884;47.450;19.124;2023-11-21T14:10:30;10.18;;;5.47;;
44214;SDS011;29884;47.450;19.124;2023-11-21T14:13:11;9.43;;;5.88;;
44214;SDS011;29884;47.450;19.124;2023-11-21T14:15:38;12.32;;;6.15;;
44214;SDS011;29884;47.450;19.124;2023-11-21T14:18:10;13.40;;;7.23;;
44214;SDS011;29884;47.450;19.124;2023-11-21T14:20:39;10.32;;;6.05;;
44214;SDS011;29884;47.450;19.124;2023-11-21T14:23:06;12.65;;;6.32;;
44214;SDS011;29884;47.450;19.124;2023-11-21T14:25:35;12.18;;;6.07;;
44214;SDS011;29884;47.450;19.124;2023-11-21T14:28:02;10.80;;;6.05;;
44214;SDS011;29884;47.450;19.124;2023-11-21T14:30:31;11.07;;;6.22;;
44214;SDS011;29884;47.450;19.124;2023-11-21T14:32:59;11.82;;;6.75;;
44214;SDS011;29884;47.450;19.124;2023-11-21T14:35:25;13.02;;;6.63;;
44214;SDS011;29884;47.450;19.124;2023-11-21T14:37:51;16.15;;;6.93;;
44214;SDS011;29884;47.450;19.124;2023-11-21T14:40:17;11.85;;;6.10;;